METAR Data
IDs: Format: Raw Decoded Include TAF

Data at: 1853 UTC 26 Oct 2021

METAR for:KFMM (Fort Morgan Muni, CO, US)
Text:KFMM 261830Z AUTO 20021G29KT 10SM CLR 27/M04 A2939 RMK AO2 T02701037
Temperature: 27.0°C ( 81°F)
Dewpoint: -3.7°C ( 25°F) [RH = 13%]
Pressure (altimeter):29.39 inches Hg ( 995.3 mb)
Winds:from the SSW (200 degrees) at 24 MPH (21 knots; 10.8 m/s) gusting to 33 MPH (29 knots; 14.9 m/s)
Visibility:10 or more sm (16+ km)
Ceiling:at least 12,000 feet AGL
Clouds:sky clear below 12,000 feet AGL
QC Flag:automated observation with no human augmentation